createdAt,value
2022-08-03T00:00:24.244Z,2.50
2022-08-03T00:02:51.099Z,2.42
2022-08-03T00:05:17.753Z,2.40
2022-08-03T00:07:44.220Z,2.13
2022-08-03T00:10:11.262Z,2.17
2022-08-03T00:12:37.730Z,2.47
2022-08-03T00:15:04.602Z,2.08
2022-08-03T00:17:52.846Z,2.08
2022-08-03T00:20:21.720Z,2.30
2022-08-03T00:22:48.727Z,2.30
2022-08-03T00:25:15.399Z,2.47
2022-08-03T00:27:41.862Z,1.95
2022-08-03T00:30:08.703Z,2.50
2022-08-03T00:32:35.212Z,2.90
2022-08-03T00:35:07.919Z,2.55
2022-08-03T00:37:41.723Z,2.60
2022-08-03T00:40:12.905Z,2.30
2022-08-03T00:42:50.805Z,2.25
2022-08-03T00:45:22.904Z,2.40
2022-08-03T00:47:50.398Z,2.47
2022-08-03T00:50:18.482Z,2.38
2022-08-03T00:52:45.374Z,2.35
2022-08-03T00:55:12.785Z,2.33
2022-08-03T00:57:39.643Z,2.30
2022-08-03T01:00:07.992Z,2.28
2022-08-03T01:02:35.038Z,2.80
2022-08-03T01:05:01.552Z,2.70
2022-08-03T01:08:00.330Z,2.67
2022-08-03T01:10:49.612Z,2.80
2022-08-03T01:14:04.588Z,2.58
2022-08-03T01:16:36.784Z,2.83
2022-08-03T01:19:32.422Z,2.40
2022-08-03T01:22:04.455Z,2.25
2022-08-03T01:24:56.379Z,2.67
2022-08-03T01:27:31.322Z,2.55
2022-08-03T01:30:12.439Z,2.70
2022-08-03T01:33:02.785Z,2.67
2022-08-03T01:35:38.647Z,2.75
2022-08-03T01:38:41.981Z,2.67
2022-08-03T01:41:12.837Z,2.40
2022-08-03T01:44:27.652Z,2.83
2022-08-03T01:46:31.391Z,2.85
2022-08-03T01:48:59.769Z,2.90
2022-08-03T01:52:03.351Z,2.70
2022-08-03T01:54:16.487Z,2.92
2022-08-03T01:56:44.109Z,2.60
2022-08-03T01:59:12.547Z,2.72
2022-08-03T02:02:29.768Z,3.08
2022-08-03T02:04:28.357Z,3.33
2022-08-03T02:07:02.039Z,3.03
2022-08-03T02:09:31.759Z,3.40
2022-08-03T02:11:59.168Z,3.28
2022-08-03T02:14:27.992Z,3.28
2022-08-03T02:16:57.296Z,3.55
2022-08-03T02:19:26.610Z,3.80
2022-08-03T02:21:56.392Z,3.45
2022-08-03T02:24:27.808Z,3.38
2022-08-03T02:26:56.606Z,3.70
2022-08-03T02:29:39.867Z,3.20
2022-08-03T02:32:11.560Z,3.00
2022-08-03T02:34:39.894Z,3.45
2022-08-03T02:37:08.604Z,3.38
2022-08-03T02:39:36.315Z,3.10
2022-08-03T02:42:03.371Z,3.83
2022-08-03T02:44:32.706Z,3.30
2022-08-03T02:47:04.979Z,3.40
2022-08-03T02:49:40.444Z,3.78
2022-08-03T02:52:21.248Z,3.58
2022-08-03T02:54:51.189Z,3.83
2022-08-03T02:57:19.972Z,3.47
2022-08-03T02:59:47.556Z,3.42
2022-08-03T03:02:16.821Z,3.42
2022-08-03T03:05:53.026Z,3.63
2022-08-03T03:07:35.350Z,3.30
2022-08-03T03:10:19.729Z,3.60
2022-08-03T03:12:48.230Z,3.80
2022-08-03T03:15:14.748Z,3.47
2022-08-03T03:17:43.712Z,3.72
2022-08-03T03:20:11.563Z,3.38
2022-08-03T03:22:39.819Z,4.07
2022-08-03T03:25:07.502Z,3.60
2022-08-03T03:27:34.555Z,4.28
2022-08-03T03:30:02.227Z,4.00
2022-08-03T03:32:29.564Z,4.10
2022-08-03T03:34:56.991Z,4.43
2022-08-03T03:37:23.442Z,4.20
2022-08-03T03:39:49.968Z,4.03
2022-08-03T03:42:16.823Z,4.00
2022-08-03T03:44:43.473Z,4.35
2022-08-03T03:47:10.000Z,4.13
2022-08-03T03:49:37.898Z,4.32
2022-08-03T03:52:04.560Z,4.63
2022-08-03T03:54:44.910Z,3.92
2022-08-03T03:57:13.187Z,4.10
2022-08-03T03:59:41.595Z,4.53
2022-08-03T04:02:09.229Z,4.10
2022-08-03T04:04:55.136Z,4.50
2022-08-03T04:07:42.784Z,4.22
2022-08-03T04:10:35.807Z,3.95
2022-08-03T04:13:06.958Z,4.80
2022-08-03T04:15:34.883Z,4.82
2022-08-03T04:18:03.585Z,4.90
2022-08-03T04:20:35.395Z,4.95
2022-08-03T04:23:03.221Z,4.90
2022-08-03T04:25:40.318Z,4.70
2022-08-03T04:28:30.047Z,4.25
2022-08-03T04:30:56.805Z,4.80
2022-08-03T04:33:29.212Z,4.93
2022-08-03T04:36:02.713Z,5.00
2022-08-03T04:38:32.873Z,4.32
2022-08-03T04:41:01.087Z,5.03
2022-08-03T04:43:29.420Z,4.95
2022-08-03T04:45:56.883Z,5.13
2022-08-03T04:48:23.874Z,5.50
2022-08-03T04:50:50.602Z,5.22
2022-08-03T04:53:18.127Z,4.80
2022-08-03T04:55:46.043Z,5.43
2022-08-03T04:58:12.728Z,4.57
2022-08-03T05:00:39.330Z,5.07
2022-08-03T05:03:20.327Z,5.05
2022-08-03T05:05:52.851Z,5.32
2022-08-03T05:08:20.454Z,4.70
2022-08-03T05:10:54.669Z,4.67
2022-08-03T05:13:21.128Z,5.20
2022-08-03T05:15:47.579Z,4.85
2022-08-03T05:18:14.512Z,4.93
2022-08-03T05:20:41.354Z,5.07
2022-08-03T05:23:07.872Z,5.65
2022-08-03T05:25:34.401Z,4.85
2022-08-03T05:28:01.360Z,5.15
2022-08-03T05:30:33.483Z,4.70
2022-08-03T05:33:01.585Z,4.88
2022-08-03T05:36:01.149Z,5.03
2022-08-03T05:38:15.471Z,5.45
2022-08-03T05:40:57.236Z,4.93
2022-08-03T05:43:24.497Z,5.13
2022-08-03T05:46:11.452Z,4.78
2022-08-03T05:48:37.862Z,5.13
2022-08-03T05:51:15.612Z,4.57
2022-08-03T05:53:43.099Z,4.60
2022-08-03T05:56:14.666Z,4.78
2022-08-03T05:58:47.372Z,5.20
2022-08-03T06:01:15.792Z,4.65
2022-08-03T06:03:42.548Z,4.00
2022-08-03T06:06:09.022Z,4.53
2022-08-03T06:08:35.664Z,4.85
2022-08-03T06:11:02.304Z,4.95
2022-08-03T06:13:29.441Z,4.97
2022-08-03T06:15:55.943Z,4.43
2022-08-03T06:18:24.014Z,4.72
2022-08-03T06:20:51.228Z,4.22
2022-08-03T06:23:19.049Z,4.80
2022-08-03T06:25:45.931Z,4.05
2022-08-03T06:31:00.941Z,16.52
2022-08-03T06:33:48.509Z,6.05
2022-08-03T06:36:14.064Z,34.10
2022-08-03T06:38:40.513Z,13.95
2022-08-03T06:41:06.956Z,11.57
2022-08-03T06:43:37.423Z,16.95
2022-08-03T06:46:05.587Z,9.40
2022-08-03T06:48:32.598Z,6.95
2022-08-03T06:50:59.505Z,12.02
2022-08-03T06:53:26.330Z,6.15
2022-08-03T06:55:54.977Z,6.00
2022-08-03T06:58:22.098Z,7.13
2022-08-03T07:00:48.600Z,4.80
2022-08-03T07:03:15.166Z,4.32
2022-08-03T07:05:43.483Z,4.47
2022-08-03T07:08:10.087Z,3.78
2022-08-03T07:10:37.009Z,3.92
2022-08-03T07:13:03.838Z,3.95
2022-08-03T07:15:53.953Z,3.67
2022-08-03T07:18:17.717Z,3.45
2022-08-03T07:20:56.432Z,3.63
2022-08-03T07:23:22.940Z,3.58
2022-08-03T07:25:50.776Z,3.70
2022-08-03T07:28:17.334Z,3.47
2022-08-03T07:30:43.805Z,3.45
2022-08-03T07:33:10.223Z,3.33
2022-08-03T07:35:38.211Z,2.95
2022-08-03T07:38:05.586Z,3.20
2022-08-03T07:40:32.232Z,2.90
2022-08-03T07:42:59.878Z,2.50
2022-08-03T07:45:26.852Z,2.58
2022-08-03T07:47:54.212Z,2.70
2022-08-03T07:50:21.544Z,2.35
2022-08-03T07:52:48.872Z,2.25
2022-08-03T07:55:17.101Z,2.55
2022-08-03T07:57:43.697Z,2.15
2022-08-03T08:00:16.746Z,2.15
2022-08-03T08:02:44.003Z,2.20
2022-08-03T08:05:11.115Z,2.30
2022-08-03T08:07:38.938Z,2.00
2022-08-03T08:10:07.554Z,1.80
2022-08-03T08:12:34.104Z,2.78
2022-08-03T08:15:00.587Z,2.00
2022-08-03T08:17:27.290Z,2.00
2022-08-03T08:19:53.990Z,2.22
2022-08-03T08:22:23.468Z,1.77
2022-08-03T08:24:58.384Z,1.90
2022-08-03T08:27:24.890Z,1.70
2022-08-03T08:29:54.231Z,2.00
2022-08-03T08:32:23.441Z,1.70
2022-08-03T08:34:50.030Z,1.63
2022-08-03T08:37:16.493Z,1.60
2022-08-03T08:39:42.984Z,1.70
2022-08-03T08:42:10.270Z,1.52
2022-08-03T08:44:36.985Z,1.77
2022-08-03T08:47:04.485Z,1.60
2022-08-03T08:49:32.954Z,1.73
2022-08-03T08:52:01.046Z,1.38
2022-08-03T08:54:29.641Z,1.70
2022-08-03T08:56:57.516Z,1.58
2022-08-03T08:59:25.062Z,1.02
2022-08-03T09:01:51.669Z,1.45
2022-08-03T09:04:18.522Z,1.20
2022-08-03T09:07:04.396Z,1.33
2022-08-03T09:10:10.452Z,1.40
2022-08-03T09:12:39.130Z,1.40
2022-08-03T09:15:28.331Z,1.60
2022-08-03T09:17:56.849Z,1.48
2022-08-03T09:20:24.847Z,1.30
2022-08-03T09:22:56.491Z,2.10
2022-08-03T09:25:29.007Z,1.60
2022-08-03T09:27:55.623Z,1.52
2022-08-03T09:30:34.405Z,1.63
2022-08-03T09:33:06.567Z,1.38
2022-08-03T09:35:52.982Z,1.88
2022-08-03T09:38:28.510Z,2.00
2022-08-03T09:41:00.001Z,1.63
2022-08-03T09:43:27.614Z,1.65
2022-08-03T09:46:03.554Z,1.70
2022-08-03T09:48:31.821Z,2.08
2022-08-03T09:51:12.834Z,1.70
2022-08-03T09:53:58.832Z,1.80
2022-08-03T09:56:44.758Z,1.63
2022-08-03T09:59:13.043Z,1.80
2022-08-03T10:01:43.271Z,1.48
2022-08-03T10:04:15.073Z,1.85
2022-08-03T10:06:41.620Z,1.85
2022-08-03T10:09:17.028Z,2.20
2022-08-03T10:11:46.820Z,1.85
2022-08-03T10:14:19.997Z,1.65
2022-08-03T10:16:52.697Z,1.45
2022-08-03T10:19:19.475Z,1.70
2022-08-03T10:21:53.582Z,1.90
2022-08-03T10:24:29.625Z,2.00
2022-08-03T10:27:11.412Z,1.60
2022-08-03T10:29:39.507Z,1.98
2022-08-03T10:32:19.021Z,1.70
2022-08-03T10:34:50.387Z,2.10
2022-08-03T10:37:17.881Z,1.80
2022-08-03T10:39:54.089Z,1.85
2022-08-03T10:42:35.118Z,1.63
2022-08-03T10:45:08.693Z,1.70
2022-08-03T10:47:36.551Z,1.60
2022-08-03T10:50:10.106Z,1.73
2022-08-03T10:52:53.447Z,1.63
2022-08-03T10:55:50.385Z,1.60
2022-08-03T10:58:36.782Z,1.70
2022-08-03T11:01:08.568Z,1.58
2022-08-03T11:03:57.662Z,1.80
2022-08-03T11:06:26.413Z,1.75
2022-08-03T11:09:11.195Z,1.65
2022-08-03T11:11:39.371Z,1.50
2022-08-03T11:14:10.045Z,1.90
2022-08-03T11:16:39.527Z,1.73
2022-08-03T11:19:07.914Z,1.50
2022-08-03T11:21:52.672Z,1.70
2022-08-03T11:24:37.591Z,1.42
2022-08-03T11:27:29.798Z,1.55
2022-08-03T11:30:10.955Z,1.67
2022-08-03T11:32:37.349Z,1.63
2022-08-03T11:35:08.626Z,1.42
2022-08-03T11:37:35.472Z,1.92
2022-08-03T11:40:03.020Z,2.20
2022-08-03T11:42:29.585Z,2.10
2022-08-03T11:44:58.180Z,1.80
2022-08-03T11:47:50.560Z,2.10
2022-08-03T11:50:19.347Z,1.88
2022-08-03T11:52:46.088Z,1.55
2022-08-03T11:55:14.279Z,1.70
2022-08-03T11:58:58.210Z,1.70
2022-08-03T12:00:32.687Z,1.83
2022-08-03T12:03:02.188Z,1.35
2022-08-03T12:05:42.448Z,1.48
2022-08-03T12:08:27.709Z,2.03
2022-08-03T12:10:56.492Z,1.70
2022-08-03T12:14:05.773Z,1.95
2022-08-03T12:16:18.635Z,1.85
2022-08-03T12:18:45.518Z,1.80
2022-08-03T12:21:12.708Z,1.73
2022-08-03T12:23:39.317Z,1.80
2022-08-03T12:26:08.681Z,1.60
2022-08-03T12:28:37.619Z,1.77
2022-08-03T12:31:12.104Z,1.63
2022-08-03T12:34:05.096Z,1.67
2022-08-03T12:36:34.909Z,1.60
2022-08-03T12:39:06.082Z,1.70
2022-08-03T12:41:37.990Z,2.03
2022-08-03T12:44:06.269Z,1.83
2022-08-03T12:46:38.009Z,1.67
2022-08-03T12:49:12.089Z,1.98
2022-08-03T12:52:05.353Z,1.65
2022-08-03T12:54:35.937Z,1.90
2022-08-03T12:57:03.820Z,2.03
2022-08-03T12:59:41.213Z,1.77
2022-08-03T13:02:20.371Z,1.95
2022-08-03T13:04:51.772Z,2.17
2022-08-03T13:07:19.889Z,1.70
2022-08-03T13:09:48.556Z,1.98
2022-08-03T13:12:20.995Z,1.88
2022-08-03T13:14:51.109Z,1.88
2022-08-03T13:17:18.050Z,1.90
2022-08-03T13:19:45.949Z,1.65
2022-08-03T13:22:12.594Z,1.50
2022-08-03T13:24:39.316Z,1.90
2022-08-03T13:28:02.022Z,1.83
2022-08-03T13:29:54.798Z,1.85
2022-08-03T13:32:21.664Z,1.77
2022-08-03T13:34:48.592Z,1.60
2022-08-03T13:37:15.967Z,1.60
2022-08-03T13:39:48.238Z,1.50
2022-08-03T13:42:27.266Z,1.73
2022-08-03T13:44:53.724Z,1.67
2022-08-03T13:47:20.667Z,1.63
2022-08-03T13:49:59.476Z,1.45
2022-08-03T13:52:29.238Z,1.65
2022-08-03T13:54:59.645Z,1.70
2022-08-03T13:58:04.904Z,2.00
2022-08-03T14:00:13.312Z,1.63
2022-08-03T14:02:53.999Z,1.40
2022-08-03T14:05:22.750Z,1.60
2022-08-03T14:07:49.370Z,1.80
2022-08-03T14:10:15.904Z,1.30
2022-08-03T14:12:42.399Z,1.88
2022-08-03T14:15:10.158Z,1.63
2022-08-03T14:17:42.078Z,1.63
2022-08-03T14:20:38.481Z,1.58
2022-08-03T14:23:02.955Z,1.60
2022-08-03T14:25:31.095Z,1.45
2022-08-03T14:28:09.849Z,2.00
2022-08-03T14:30:36.723Z,1.77
2022-08-03T14:33:03.477Z,1.75
2022-08-03T14:35:29.965Z,1.15
2022-08-03T14:37:56.487Z,1.38
2022-08-03T14:40:23.035Z,1.45
2022-08-03T14:42:49.535Z,1.65
2022-08-03T14:45:19.940Z,1.60
2022-08-03T14:50:24.524Z,1.58
2022-08-03T14:50:42.931Z,1.52
2022-08-03T14:53:12.320Z,1.42
2022-08-03T14:55:49.852Z,1.70
2022-08-03T14:58:19.562Z,1.58
2022-08-03T15:00:47.927Z,1.50
2022-08-03T15:03:16.569Z,1.90
2022-08-03T15:05:43.692Z,1.58
2022-08-03T15:08:10.244Z,1.60
2022-08-03T15:10:40.441Z,1.48
2022-08-03T15:13:12.888Z,1.50
2022-08-03T15:15:39.935Z,1.40
2022-08-03T15:18:06.465Z,1.80
2022-08-03T15:20:43.897Z,1.40
2022-08-03T15:23:11.455Z,1.67
2022-08-03T15:26:28.726Z,1.58
2022-08-03T15:28:24.611Z,1.70
2022-08-03T15:30:54.586Z,1.27
2022-08-03T15:33:21.175Z,1.40
2022-08-03T15:35:48.030Z,1.50
2022-08-03T15:38:14.757Z,1.50
2022-08-03T15:40:41.602Z,1.60
2022-08-03T15:43:08.293Z,1.38
2022-08-03T15:45:36.093Z,1.30
2022-08-03T15:48:03.154Z,1.52
2022-08-03T15:50:29.594Z,1.33
2022-08-03T15:52:56.515Z,1.40
2022-08-03T15:55:23.224Z,1.63
2022-08-03T15:59:10.431Z,1.30
2022-08-03T16:00:36.234Z,1.50
2022-08-03T16:03:03.222Z,1.52
2022-08-03T16:05:29.675Z,1.70
2022-08-03T16:08:03.221Z,1.55
2022-08-03T16:10:31.420Z,1.20
2022-08-03T16:13:01.168Z,1.45
2022-08-03T16:15:27.733Z,1.42
2022-08-03T16:17:54.592Z,1.30
2022-08-03T16:20:30.827Z,1.50
2022-08-03T16:23:10.480Z,1.40
2022-08-03T16:25:41.875Z,1.45
2022-08-03T16:28:13.897Z,1.38
2022-08-03T16:30:43.705Z,1.65
2022-08-03T16:33:11.174Z,1.20
2022-08-03T16:35:38.057Z,1.10
2022-08-03T16:38:09.599Z,1.08
2022-08-03T16:40:36.805Z,1.52
2022-08-03T16:43:18.979Z,1.10
2022-08-03T16:45:47.219Z,1.38
2022-08-03T16:48:15.115Z,1.30
2022-08-03T16:50:41.868Z,1.15
2022-08-03T16:53:09.868Z,1.52
2022-08-03T16:55:49.065Z,1.67
2022-08-03T16:58:19.679Z,1.15
2022-08-03T17:01:10.933Z,1.17
2022-08-03T17:04:02.411Z,1.23
2022-08-03T17:06:34.107Z,1.00
2022-08-03T17:09:03.109Z,1.05
2022-08-03T17:11:33.128Z,1.15
2022-08-03T17:14:00.520Z,0.95
2022-08-03T17:16:27.422Z,0.90
2022-08-03T17:19:02.532Z,1.30
2022-08-03T17:21:32.457Z,1.35
2022-08-03T17:24:23.700Z,0.95
2022-08-03T17:26:53.722Z,1.00
2022-08-03T17:29:25.137Z,1.17
2022-08-03T17:31:53.017Z,1.00
2022-08-03T17:34:20.943Z,1.20
2022-08-03T17:37:27.006Z,1.02
2022-08-03T17:39:58.196Z,0.90
2022-08-03T17:42:38.870Z,1.00
2022-08-03T17:45:06.746Z,0.95
2022-08-03T17:47:42.880Z,0.90
2022-08-03T17:50:25.124Z,1.17
2022-08-03T17:52:59.638Z,0.90
2022-08-03T17:55:55.494Z,1.00
2022-08-03T17:58:21.792Z,1.00
2022-08-03T18:02:03.174Z,0.93
2022-08-03T18:04:01.156Z,1.05
2022-08-03T18:06:31.280Z,1.35
2022-08-03T18:09:00.083Z,0.80
2022-08-03T18:11:35.742Z,1.10
2022-08-03T18:14:16.153Z,1.30
2022-08-03T18:16:56.324Z,1.10
2022-08-03T18:20:03.530Z,1.65
2022-08-03T18:22:10.637Z,1.42
2022-08-03T18:24:38.269Z,1.63
2022-08-03T18:27:06.629Z,1.30
2022-08-03T18:29:37.064Z,1.50
2022-08-03T18:32:13.339Z,1.20
2022-08-03T18:34:53.094Z,1.40
2022-08-03T18:37:25.251Z,1.45
2022-08-03T18:39:58.316Z,1.88
2022-08-03T18:42:27.010Z,1.30
2022-08-03T18:44:56.194Z,1.50
2022-08-03T18:47:23.477Z,2.00
2022-08-03T18:50:08.454Z,1.83
2022-08-03T18:52:53.041Z,1.90
2022-08-03T18:58:30.146Z,2.35
2022-08-03T19:01:15.417Z,2.78
2022-08-03T19:04:35.655Z,2.60
2022-08-03T19:07:07.966Z,2.25
2022-08-03T19:09:48.734Z,2.00
2022-08-03T19:12:30.963Z,2.13
2022-08-03T19:15:13.520Z,2.15
2022-08-03T19:17:50.355Z,1.60
2022-08-03T19:20:22.515Z,1.70
2022-08-03T19:22:52.565Z,1.75
2022-08-03T19:25:19.216Z,1.88
2022-08-03T19:27:48.185Z,2.13
2022-08-03T19:30:35.638Z,2.42
2022-08-03T19:33:06.911Z,2.33
2022-08-03T19:35:52.214Z,1.88
2022-08-03T19:38:29.069Z,2.53
2022-08-03T19:41:03.514Z,2.50
2022-08-03T19:43:53.492Z,2.10
2022-08-03T19:46:27.618Z,2.17
2022-08-03T19:49:04.680Z,1.42
2022-08-03T19:51:58.391Z,1.90
2022-08-03T19:54:29.622Z,1.90
2022-08-03T19:57:00.328Z,1.80
2022-08-03T19:59:30.053Z,1.80
2022-08-03T20:01:57.486Z,1.88
2022-08-03T20:04:24.976Z,2.08
2022-08-03T20:06:52.188Z,2.05
2022-08-03T20:09:20.678Z,1.60
2022-08-03T20:11:47.807Z,2.17
2022-08-03T20:14:20.842Z,1.52
2022-08-03T20:16:53.515Z,2.00
2022-08-03T20:19:20.155Z,1.98
2022-08-03T20:21:48.820Z,2.30
2022-08-03T20:24:36.671Z,2.38
2022-08-03T20:27:08.056Z,1.85
2022-08-03T20:30:05.406Z,1.60
2022-08-03T20:32:27.872Z,1.52
2022-08-03T20:34:54.376Z,2.22
2022-08-03T20:37:22.060Z,2.30
2022-08-03T20:39:49.424Z,1.70
2022-08-03T20:42:21.770Z,2.08
2022-08-03T20:45:04.439Z,2.08
2022-08-03T20:47:33.862Z,2.00
2022-08-03T20:50:03.912Z,2.05
2022-08-03T20:52:33.333Z,1.67
2022-08-03T20:55:02.182Z,1.50
2022-08-03T20:57:33.195Z,1.67
2022-08-03T21:00:07.095Z,1.60
2022-08-03T21:02:36.650Z,1.58
2022-08-03T21:05:08.605Z,1.80
2022-08-03T21:10:38.004Z,1.83
2022-08-03T21:13:00.961Z,1.92
2022-08-03T21:13:12.153Z,1.60
2022-08-03T21:13:17.454Z,1.80
2022-08-03T21:16:12.730Z,1.92
2022-08-03T21:18:51.925Z,1.75
2022-08-03T21:21:22.170Z,1.45
2022-08-03T21:23:51.117Z,1.80
2022-08-03T21:26:19.838Z,1.35
2022-08-03T21:28:48.860Z,1.60
2022-08-03T21:31:25.617Z,2.05
2022-08-03T21:34:05.101Z,1.55
2022-08-03T21:36:35.961Z,1.55
2022-08-03T21:39:05.564Z,2.00
2022-08-03T21:41:32.604Z,1.38
2022-08-03T21:44:00.470Z,1.48
2022-08-03T21:46:36.860Z,1.92
2022-08-03T21:49:52.053Z,2.15
2022-08-03T21:51:59.700Z,1.77
2022-08-03T21:54:34.977Z,1.80
2022-08-03T21:57:08.718Z,2.00
2022-08-03T21:59:38.069Z,2.05
2022-08-03T22:02:06.462Z,1.80
2022-08-03T22:04:55.115Z,1.60
2022-08-03T22:07:24.047Z,1.50
2022-08-03T22:09:52.138Z,2.00
2022-08-03T22:12:23.115Z,1.55
2022-08-03T22:15:00.362Z,2.00
2022-08-03T22:17:55.146Z,1.75
2022-08-03T22:20:16.487Z,1.60
2022-08-03T22:22:55.217Z,2.00
2022-08-03T22:25:29.451Z,1.70
2022-08-03T22:27:58.478Z,2.63
2022-08-03T22:30:25.104Z,2.00
2022-08-03T22:32:54.313Z,1.92
2022-08-03T22:35:21.529Z,2.47
2022-08-03T22:37:53.872Z,2.15
2022-08-03T22:40:20.658Z,1.65
2022-08-03T22:42:51.959Z,2.00
2022-08-03T22:46:07.331Z,1.95
2022-08-03T22:48:08.014Z,2.17
2022-08-03T22:50:35.283Z,1.90
2022-08-03T22:53:02.086Z,2.15
2022-08-03T22:55:29.099Z,2.15
2022-08-03T22:57:56.323Z,2.78
2022-08-03T23:00:24.140Z,1.98
2022-08-03T23:02:51.805Z,1.90
2022-08-03T23:06:02.318Z,2.15
2022-08-03T23:08:15.011Z,2.20
2022-08-03T23:10:47.088Z,2.15
2022-08-03T23:13:17.408Z,1.77
2022-08-03T23:16:06.492Z,2.05
2022-08-03T23:18:37.781Z,1.80
2022-08-03T23:21:11.203Z,2.03
2022-08-03T23:23:44.613Z,2.40
2022-08-03T23:26:12.122Z,2.28
2022-08-03T23:28:39.833Z,2.47
2022-08-03T23:31:08.185Z,1.95
2022-08-03T23:33:38.709Z,1.98
2022-08-03T23:36:28.778Z,2.08
2022-08-03T23:38:54.163Z,2.22
2022-08-03T23:41:22.111Z,2.17
2022-08-03T23:43:51.853Z,2.42
2022-08-03T23:46:22.492Z,1.92
2022-08-03T23:48:50.883Z,1.88
2022-08-03T23:51:36.974Z,2.15
2022-08-03T23:54:09.879Z,2.03
2022-08-03T23:56:49.644Z,1.90
2022-08-03T23:59:40.193Z,2.42
